Ardrossan, Canada
Current Conditions -  °F | °C
As of 7:00 AM on Friday 24 Oct 2014 (Local Time) from CYXD Reporting Station
Clear Clear  
Wind Chill: 34°   Ceiling: Unl
Heat Index: 39°   Visibility: 9mi
Dew Point: 32°   Wind: 8mph
Humidity: 75%   Direction: 280°W
Pressure: 29.75"   Gusts: NA
Location:  53.55°N, 113.13°W
Report Text: CYXD 241300Z AUTO 28007KT 9SM CLR 04/M00 A2975 RMK SLP092
Loading
Personal Weather Stations






























Interactive Weather Map
Tropical Storm Tracking
New forecast layout! Learn more

10-Day Weather Forecast

Advertisements
Track Severe Weather on mobile